sensor_id;sensor_type;location;lat;lon;timestamp;P1;durP1;ratioP1;P2;durP2;ratioP2
30707;SDS011;17458;48.958;8.284;2023-09-18T00:01:57;11.10;;;5.10;;
30707;SDS011;17458;48.958;8.284;2023-09-18T00:04:41;12.50;;;5.63;;
30707;SDS011;17458;48.958;8.284;2023-09-18T00:07:25;16.42;;;6.55;;
30707;SDS011;17458;48.958;8.284;2023-09-18T00:10:10;17.80;;;5.82;;
30707;SDS011;17458;48.958;8.284;2023-09-18T00:12:54;8.88;;;5.28;;
30707;SDS011;17458;48.958;8.284;2023-09-18T00:15:38;11.68;;;5.32;;
30707;SDS011;17458;48.958;8.284;2023-09-18T00:18:24;15.77;;;5.80;;
30707;SDS011;17458;48.958;8.284;2023-09-18T00:21:08;13.35;;;5.93;;
30707;SDS011;17458;48.958;8.284;2023-09-18T00:23:54;10.73;;;5.32;;
30707;SDS011;17458;48.958;8.284;2023-09-18T00:26:38;10.43;;;5.82;;
30707;SDS011;17458;48.958;8.284;2023-09-18T00:29:22;17.90;;;6.32;;
30707;SDS011;17458;48.958;8.284;2023-09-18T00:32:07;12.68;;;5.13;;
30707;SDS011;17458;48.958;8.284;2023-09-18T00:34:52;8.35;;;4.22;;
30707;SDS011;17458;48.958;8.284;2023-09-18T00:37:36;8.52;;;4.63;;
30707;SDS011;17458;48.958;8.284;2023-09-18T00:40:20;7.47;;;4.80;;
30707;SDS011;17458;48.958;8.284;2023-09-18T00:43:04;10.50;;;5.85;;
30707;SDS011;17458;48.958;8.284;2023-09-18T00:45:48;14.05;;;6.07;;
30707;SDS011;17458;48.958;8.284;2023-09-18T00:48:32;10.07;;;5.43;;
30707;SDS011;17458;48.958;8.284;2023-09-18T00:51:16;11.05;;;4.60;;
30707;SDS011;17458;48.958;8.284;2023-09-18T00:54:01;19.65;;;5.50;;
30707;SDS011;17458;48.958;8.284;2023-09-18T00:56:46;16.48;;;6.05;;
30707;SDS011;17458;48.958;8.284;2023-09-18T00:59:31;7.47;;;5.07;;
30707;SDS011;17458;48.958;8.284;2023-09-18T01:02:17;8.35;;;5.10;;
30707;SDS011;17458;48.958;8.284;2023-09-18T01:05:04;6.28;;;5.00;;
30707;SDS011;17458;48.958;8.284;2023-09-18T01:07:49;7.53;;;5.15;;
30707;SDS011;17458;48.958;8.284;2023-09-18T01:10:47;12.82;;;5.78;;
30707;SDS011;17458;48.958;8.284;2023-09-18T01:13:37;6.45;;;4.40;;
30707;SDS011;17458;48.958;8.284;2023-09-18T01:16:34;11.50;;;4.75;;
30707;SDS011;17458;48.958;8.284;2023-09-18T01:19:35;16.02;;;5.30;;
30707;SDS011;17458;48.958;8.284;2023-09-18T01:22:23;12.70;;;5.22;;
30707;SDS011;17458;48.958;8.284;2023-09-18T01:25:07;6.82;;;4.03;;
30707;SDS011;17458;48.958;8.284;2023-09-18T01:27:51;7.65;;;4.57;;
30707;SDS011;17458;48.958;8.284;2023-09-18T01:30:36;17.40;;;4.65;;
30707;SDS011;17458;48.958;8.284;2023-09-18T01:33:22;21.55;;;4.82;;
30707;SDS011;17458;48.958;8.284;2023-09-18T01:36:07;12.68;;;6.28;;
30707;SDS011;17458;48.958;8.284;2023-09-18T01:38:52;12.40;;;4.68;;
30707;SDS011;17458;48.958;8.284;2023-09-18T01:41:38;9.23;;;4.28;;
30707;SDS011;17458;48.958;8.284;2023-09-18T01:44:23;12.32;;;4.57;;
30707;SDS011;17458;48.958;8.284;2023-09-18T01:47:08;9.73;;;4.32;;
30707;SDS011;17458;48.958;8.284;2023-09-18T01:49:54;11.52;;;4.50;;
30707;SDS011;17458;48.958;8.284;2023-09-18T01:52:38;7.07;;;4.50;;
30707;SDS011;17458;48.958;8.284;2023-09-18T01:55:22;18.90;;;5.50;;
30707;SDS011;17458;48.958;8.284;2023-09-18T01:58:06;14.90;;;5.43;;
30707;SDS011;17458;48.958;8.284;2023-09-18T02:00:50;6.57;;;3.88;;
30707;SDS011;17458;48.958;8.284;2023-09-18T02:03:34;6.72;;;4.15;;
30707;SDS011;17458;48.958;8.284;2023-09-18T02:06:18;11.52;;;4.65;;
30707;SDS011;17458;48.958;8.284;2023-09-18T02:09:02;14.18;;;5.20;;
30707;SDS011;17458;48.958;8.284;2023-09-18T02:11:52;8.88;;;4.57;;
30707;SDS011;17458;48.958;8.284;2023-09-18T02:14:36;12.20;;;4.53;;
30707;SDS011;17458;48.958;8.284;2023-09-18T02:17:22;8.30;;;4.60;;
30707;SDS011;17458;48.958;8.284;2023-09-18T02:20:06;10.60;;;4.97;;
30707;SDS011;17458;48.958;8.284;2023-09-18T02:22:55;16.23;;;5.00;;
30707;SDS011;17458;48.958;8.284;2023-09-18T02:25:39;16.40;;;6.00;;
30707;SDS011;17458;48.958;8.284;2023-09-18T02:28:24;13.15;;;4.50;;
30707;SDS011;17458;48.958;8.284;2023-09-18T02:31:08;8.68;;;4.93;;
30707;SDS011;17458;48.958;8.284;2023-09-18T02:33:52;18.60;;;5.63;;
30707;SDS011;17458;48.958;8.284;2023-09-18T02:36:36;17.40;;;4.45;;
30707;SDS011;17458;48.958;8.284;2023-09-18T02:39:22;9.90;;;4.38;;
30707;SDS011;17458;48.958;8.284;2023-09-18T02:42:08;12.30;;;3.95;;
30707;SDS011;17458;48.958;8.284;2023-09-18T02:44:52;14.88;;;6.13;;
30707;SDS011;17458;48.958;8.284;2023-09-18T02:47:36;8.88;;;4.30;;
30707;SDS011;17458;48.958;8.284;2023-09-18T02:50:24;7.13;;;3.97;;
30707;SDS011;17458;48.958;8.284;2023-09-18T02:53:16;14.20;;;4.22;;
30707;SDS011;17458;48.958;8.284;2023-09-18T02:56:03;11.73;;;4.18;;
30707;SDS011;17458;48.958;8.284;2023-09-18T02:58:47;10.63;;;3.70;;
30707;SDS011;17458;48.958;8.284;2023-09-18T03:01:31;9.43;;;3.38;;
30707;SDS011;17458;48.958;8.284;2023-09-18T03:04:15;4.65;;;4.03;;
30707;SDS011;17458;48.958;8.284;2023-09-18T03:06:59;13.68;;;5.15;;
30707;SDS011;17458;48.958;8.284;2023-09-18T03:09:43;5.72;;;3.70;;
30707;SDS011;17458;48.958;8.284;2023-09-18T03:12:27;10.40;;;5.18;;
30707;SDS011;17458;48.958;8.284;2023-09-18T03:15:12;8.38;;;4.22;;
30707;SDS011;17458;48.958;8.284;2023-09-18T03:17:56;9.50;;;3.88;;
30707;SDS011;17458;48.958;8.284;2023-09-18T03:20:42;9.65;;;3.60;;
30707;SDS011;17458;48.958;8.284;2023-09-18T03:23:26;15.07;;;4.28;;
30707;SDS011;17458;48.958;8.284;2023-09-18T03:26:11;12.50;;;3.75;;
30707;SDS011;17458;48.958;8.284;2023-09-18T03:28:55;12.27;;;4.32;;
30707;SDS011;17458;48.958;8.284;2023-09-18T03:31:39;15.85;;;3.97;;
30707;SDS011;17458;48.958;8.284;2023-09-18T03:34:23;9.70;;;3.83;;
30707;SDS011;17458;48.958;8.284;2023-09-18T03:37:09;14.77;;;4.50;;
30707;SDS011;17458;48.958;8.284;2023-09-18T03:39:54;20.30;;;4.70;;
30707;SDS011;17458;48.958;8.284;2023-09-18T03:42:38;14.75;;;4.05;;
30707;SDS011;17458;48.958;8.284;2023-09-18T03:45:23;20.55;;;4.60;;
30707;SDS011;17458;48.958;8.284;2023-09-18T03:48:07;14.82;;;4.50;;
30707;SDS011;17458;48.958;8.284;2023-09-18T03:50:52;14.05;;;3.53;;
30707;SDS011;17458;48.958;8.284;2023-09-18T03:53:35;16.63;;;4.28;;
30707;SDS011;17458;48.958;8.284;2023-09-18T03:56:20;20.90;;;4.15;;
30707;SDS011;17458;48.958;8.284;2023-09-18T03:59:05;13.82;;;5.00;;
30707;SDS011;17458;48.958;8.284;2023-09-18T04:01:49;9.00;;;4.25;;
30707;SDS011;17458;48.958;8.284;2023-09-18T04:04:33;14.20;;;4.28;;
30707;SDS011;17458;48.958;8.284;2023-09-18T04:07:17;11.30;;;3.55;;
30707;SDS011;17458;48.958;8.284;2023-09-18T04:10:02;7.82;;;3.38;;
30707;SDS011;17458;48.958;8.284;2023-09-18T04:12:47;12.48;;;3.28;;
30707;SDS011;17458;48.958;8.284;2023-09-18T04:15:31;13.95;;;3.67;;
30707;SDS011;17458;48.958;8.284;2023-09-18T04:18:15;19.95;;;3.72;;
30707;SDS011;17458;48.958;8.284;2023-09-18T04:20:59;14.75;;;3.92;;
30707;SDS011;17458;48.958;8.284;2023-09-18T04:23:44;10.55;;;3.33;;
30707;SDS011;17458;48.958;8.284;2023-09-18T04:26:28;8.13;;;3.33;;
30707;SDS011;17458;48.958;8.284;2023-09-18T04:29:16;12.00;;;3.53;;
30707;SDS011;17458;48.958;8.284;2023-09-18T04:32:01;12.38;;;3.75;;
30707;SDS011;17458;48.958;8.284;2023-09-18T04:34:47;13.85;;;3.60;;
30707;SDS011;17458;48.958;8.284;2023-09-18T04:37:31;16.58;;;3.67;;
30707;SDS011;17458;48.958;8.284;2023-09-18T04:40:19;13.75;;;4.18;;
30707;SDS011;17458;48.958;8.284;2023-09-18T04:43:03;14.40;;;3.80;;
30707;SDS011;17458;48.958;8.284;2023-09-18T04:45:48;12.80;;;3.78;;
30707;SDS011;17458;48.958;8.284;2023-09-18T04:48:33;17.90;;;3.95;;
30707;SDS011;17458;48.958;8.284;2023-09-18T04:51:18;9.25;;;4.00;;
30707;SDS011;17458;48.958;8.284;2023-09-18T04:54:03;11.68;;;3.97;;
30707;SDS011;17458;48.958;8.284;2023-09-18T04:56:48;18.75;;;3.85;;
30707;SDS011;17458;48.958;8.284;2023-09-18T04:59:32;14.40;;;4.80;;
30707;SDS011;17458;48.958;8.284;2023-09-18T05:02:16;16.75;;;3.70;;
30707;SDS011;17458;48.958;8.284;2023-09-18T05:05:00;15.13;;;4.82;;
30707;SDS011;17458;48.958;8.284;2023-09-18T05:07:45;12.02;;;3.55;;
30707;SDS011;17458;48.958;8.284;2023-09-18T05:10:29;17.08;;;4.03;;
30707;SDS011;17458;48.958;8.284;2023-09-18T05:13:14;22.20;;;4.43;;
30707;SDS011;17458;48.958;8.284;2023-09-18T05:15:58;9.82;;;3.72;;
30707;SDS011;17458;48.958;8.284;2023-09-18T05:18:43;11.10;;;2.72;;
30707;SDS011;17458;48.958;8.284;2023-09-18T05:21:26;10.95;;;3.03;;
30707;SDS011;17458;48.958;8.284;2023-09-18T05:24:11;14.50;;;3.97;;
30707;SDS011;17458;48.958;8.284;2023-09-18T05:26:56;12.90;;;3.67;;
30707;SDS011;17458;48.958;8.284;2023-09-18T05:29:40;18.58;;;5.97;;
30707;SDS011;17458;48.958;8.284;2023-09-18T05:32:24;7.60;;;3.78;;
30707;SDS011;17458;48.958;8.284;2023-09-18T05:35:08;17.58;;;3.50;;
30707;SDS011;17458;48.958;8.284;2023-09-18T05:37:54;14.23;;;3.83;;
30707;SDS011;17458;48.958;8.284;2023-09-18T05:40:40;9.57;;;4.05;;
30707;SDS011;17458;48.958;8.284;2023-09-18T05:43:25;16.45;;;3.22;;
30707;SDS011;17458;48.958;8.284;2023-09-18T05:46:09;19.83;;;3.50;;
30707;SDS011;17458;48.958;8.284;2023-09-18T05:48:53;9.10;;;3.55;;
30707;SDS011;17458;48.958;8.284;2023-09-18T05:51:40;20.75;;;3.80;;
30707;SDS011;17458;48.958;8.284;2023-09-18T05:54:24;11.65;;;3.97;;
30707;SDS011;17458;48.958;8.284;2023-09-18T05:57:08;13.20;;;3.88;;
30707;SDS011;17458;48.958;8.284;2023-09-18T05:59:52;17.00;;;3.67;;
30707;SDS011;17458;48.958;8.284;2023-09-18T06:02:37;13.35;;;3.88;;
30707;SDS011;17458;48.958;8.284;2023-09-18T06:05:21;10.48;;;4.15;;
30707;SDS011;17458;48.958;8.284;2023-09-18T06:08:06;15.95;;;4.05;;
30707;SDS011;17458;48.958;8.284;2023-09-18T06:10:50;8.68;;;3.20;;
30707;SDS011;17458;48.958;8.284;2023-09-18T06:13:34;20.30;;;4.15;;
30707;SDS011;17458;48.958;8.284;2023-09-18T06:16:18;14.88;;;3.70;;
30707;SDS011;17458;48.958;8.284;2023-09-18T06:19:02;5.60;;;3.25;;
30707;SDS011;17458;48.958;8.284;2023-09-18T06:21:46;16.80;;;3.67;;
30707;SDS011;17458;48.958;8.284;2023-09-18T06:24:29;5.82;;;3.38;;
30707;SDS011;17458;48.958;8.284;2023-09-18T06:27:13;14.35;;;4.70;;
30707;SDS011;17458;48.958;8.284;2023-09-18T06:29:57;10.65;;;3.15;;
30707;SDS011;17458;48.958;8.284;2023-09-18T06:32:41;11.93;;;4.32;;
30707;SDS011;17458;48.958;8.284;2023-09-18T06:35:25;7.95;;;3.33;;
30707;SDS011;17458;48.958;8.284;2023-09-18T06:38:09;14.90;;;3.17;;
30707;SDS011;17458;48.958;8.284;2023-09-18T06:40:56;11.05;;;2.90;;
30707;SDS011;17458;48.958;8.284;2023-09-18T06:43:39;8.02;;;3.90;;
30707;SDS011;17458;48.958;8.284;2023-09-18T06:46:23;8.95;;;2.70;;
30707;SDS011;17458;48.958;8.284;2023-09-18T06:49:07;10.82;;;2.53;;
30707;SDS011;17458;48.958;8.284;2023-09-18T06:51:51;9.13;;;3.05;;
30707;SDS011;17458;48.958;8.284;2023-09-18T06:54:36;13.52;;;3.13;;
30707;SDS011;17458;48.958;8.284;2023-09-18T06:57:20;5.00;;;3.00;;
30707;SDS011;17458;48.958;8.284;2023-09-18T07:00:05;9.35;;;3.13;;
30707;SDS011;17458;48.958;8.284;2023-09-18T07:02:49;11.77;;;2.75;;
30707;SDS011;17458;48.958;8.284;2023-09-18T07:05:33;10.05;;;2.17;;
30707;SDS011;17458;48.958;8.284;2023-09-18T07:08:17;3.45;;;1.73;;
30707;SDS011;17458;48.958;8.284;2023-09-18T07:11:06;10.05;;;2.58;;
30707;SDS011;17458;48.958;8.284;2023-09-18T07:13:50;7.80;;;2.33;;
30707;SDS011;17458;48.958;8.284;2023-09-18T07:16:34;5.68;;;2.15;;
30707;SDS011;17458;48.958;8.284;2023-09-18T07:19:18;9.35;;;2.25;;
30707;SDS011;17458;48.958;8.284;2023-09-18T07:22:02;12.82;;;2.17;;
30707;SDS011;17458;48.958;8.284;2023-09-18T07:24:46;5.43;;;1.67;;
30707;SDS011;17458;48.958;8.284;2023-09-18T07:27:30;7.38;;;1.95;;
30707;SDS011;17458;48.958;8.284;2023-09-18T07:30:14;11.35;;;2.53;;
30707;SDS011;17458;48.958;8.284;2023-09-18T07:33:00;3.78;;;1.45;;
30707;SDS011;17458;48.958;8.284;2023-09-18T07:35:47;7.13;;;1.88;;
30707;SDS011;17458;48.958;8.284;2023-09-18T07:38:31;5.05;;;1.75;;
30707;SDS011;17458;48.958;8.284;2023-09-18T07:41:15;4.38;;;1.40;;
30707;SDS011;17458;48.958;8.284;2023-09-18T07:43:59;2.83;;;1.27;;
30707;SDS011;17458;48.958;8.284;2023-09-18T07:46:43;5.13;;;1.80;;
30707;SDS011;17458;48.958;8.284;2023-09-18T07:49:27;5.40;;;1.27;;
30707;SDS011;17458;48.958;8.284;2023-09-18T07:52:11;4.00;;;2.00;;
30707;SDS011;17458;48.958;8.284;2023-09-18T07:54:55;6.40;;;1.50;;
30707;SDS011;17458;48.958;8.284;2023-09-18T07:57:39;4.35;;;1.17;;
30707;SDS011;17458;48.958;8.284;2023-09-18T08:00:24;4.28;;;1.17;;
30707;SDS011;17458;48.958;8.284;2023-09-18T08:03:09;7.05;;;2.70;;
30707;SDS011;17458;48.958;8.284;2023-09-18T08:05:53;3.13;;;1.17;;
30707;SDS011;17458;48.958;8.284;2023-09-18T08:08:38;3.75;;;0.90;;
30707;SDS011;17458;48.958;8.284;2023-09-18T08:11:22;8.15;;;1.27;;
30707;SDS011;17458;48.958;8.284;2023-09-18T08:14:06;6.07;;;1.35;;
30707;SDS011;17458;48.958;8.284;2023-09-18T08:16:55;1.83;;;1.65;;
30707;SDS011;17458;48.958;8.284;2023-09-18T08:19:41;1.58;;;0.80;;
30707;SDS011;17458;48.958;8.284;2023-09-18T08:22:26;2.65;;;0.90;;
30707;SDS011;17458;48.958;8.284;2023-09-18T08:25:11;7.95;;;1.98;;
30707;SDS011;17458;48.958;8.284;2023-09-18T08:27:55;5.10;;;1.70;;
30707;SDS011;17458;48.958;8.284;2023-09-18T08:30:39;1.65;;;1.10;;
30707;SDS011;17458;48.958;8.284;2023-09-18T08:33:23;5.35;;;1.00;;
30707;SDS011;17458;48.958;8.284;2023-09-18T08:36:08;3.97;;;1.30;;
30707;SDS011;17458;48.958;8.284;2023-09-18T08:38:52;11.05;;;3.08;;
30707;SDS011;17458;48.958;8.284;2023-09-18T08:41:38;4.68;;;1.92;;
30707;SDS011;17458;48.958;8.284;2023-09-18T08:44:26;11.63;;;2.17;;
30707;SDS011;17458;48.958;8.284;2023-09-18T08:47:11;4.60;;;1.23;;
30707;SDS011;17458;48.958;8.284;2023-09-18T08:49:57;5.15;;;1.27;;
30707;SDS011;17458;48.958;8.284;2023-09-18T08:52:43;9.73;;;1.45;;
30707;SDS011;17458;48.958;8.284;2023-09-18T08:55:27;6.00;;;1.40;;
30707;SDS011;17458;48.958;8.284;2023-09-18T08:58:12;5.45;;;1.45;;
30707;SDS011;17458;48.958;8.284;2023-09-18T09:00:57;2.97;;;0.95;;
30707;SDS011;17458;48.958;8.284;2023-09-18T09:03:42;4.03;;;1.90;;
30707;SDS011;17458;48.958;8.284;2023-09-18T09:06:29;8.10;;;2.72;;
30707;SDS011;17458;48.958;8.284;2023-09-18T09:09:13;2.28;;;1.10;;
30707;SDS011;17458;48.958;8.284;2023-09-18T09:11:58;7.55;;;1.48;;
30707;SDS011;17458;48.958;8.284;2023-09-18T09:14:52;4.03;;;0.98;;
30707;SDS011;17458;48.958;8.284;2023-09-18T09:17:45;4.68;;;1.05;;
30707;SDS011;17458;48.958;8.284;2023-09-18T09:20:29;1.70;;;1.23;;
30707;SDS011;17458;48.958;8.284;2023-09-18T09:23:13;5.78;;;1.40;;
30707;SDS011;17458;48.958;8.284;2023-09-18T09:26:16;4.32;;;1.45;;
30707;SDS011;17458;48.958;8.284;2023-09-18T09:29:13;3.90;;;1.20;;
30707;SDS011;17458;48.958;8.284;2023-09-18T09:32:15;6.07;;;2.20;;
30707;SDS011;17458;48.958;8.284;2023-09-18T09:35:00;6.30;;;1.23;;
30707;SDS011;17458;48.958;8.284;2023-09-18T09:37:46;8.15;;;1.42;;
30707;SDS011;17458;48.958;8.284;2023-09-18T09:40:31;3.35;;;1.25;;
30707;SDS011;17458;48.958;8.284;2023-09-18T09:43:22;2.70;;;1.30;;
30707;SDS011;17458;48.958;8.284;2023-09-18T09:46:06;4.75;;;1.40;;
30707;SDS011;17458;48.958;8.284;2023-09-18T09:48:58;4.63;;;1.23;;
30707;SDS011;17458;48.958;8.284;2023-09-18T09:51:46;7.07;;;2.20;;
30707;SDS011;17458;48.958;8.284;2023-09-18T09:54:34;6.75;;;2.60;;
30707;SDS011;17458;48.958;8.284;2023-09-18T09:57:20;3.05;;;1.08;;
30707;SDS011;17458;48.958;8.284;2023-09-18T10:00:04;6.57;;;1.23;;
30707;SDS011;17458;48.958;8.284;2023-09-18T10:03:06;2.83;;;1.52;;
30707;SDS011;17458;48.958;8.284;2023-09-18T10:05:52;6.95;;;1.92;;
30707;SDS011;17458;48.958;8.284;2023-09-18T10:08:37;2.53;;;1.25;;
30707;SDS011;17458;48.958;8.284;2023-09-18T10:11:22;6.78;;;1.33;;
30707;SDS011;17458;48.958;8.284;2023-09-18T10:14:14;5.60;;;1.00;;
30707;SDS011;17458;48.958;8.284;2023-09-18T10:17:09;3.15;;;1.83;;
30707;SDS011;17458;48.958;8.284;2023-09-18T10:20:07;6.72;;;1.40;;
30707;SDS011;17458;48.958;8.284;2023-09-18T10:22:54;1.02;;;0.80;;
30707;SDS011;17458;48.958;8.284;2023-09-18T10:25:45;2.65;;;0.70;;
30707;SDS011;17458;48.958;8.284;2023-09-18T10:28:32;1.67;;;1.20;;
30707;SDS011;17458;48.958;8.284;2023-09-18T10:31:16;1.27;;;0.90;;
30707;SDS011;17458;48.958;8.284;2023-09-18T10:34:00;1.13;;;0.70;;
30707;SDS011;17458;48.958;8.284;2023-09-18T10:36:47;4.72;;;1.10;;
30707;SDS011;17458;48.958;8.284;2023-09-18T10:39:35;4.13;;;1.15;;
30707;SDS011;17458;48.958;8.284;2023-09-18T10:42:23;5.38;;;1.60;;
30707;SDS011;17458;48.958;8.284;2023-09-18T10:45:08;4.15;;;1.20;;
30707;SDS011;17458;48.958;8.284;2023-09-18T10:47:54;4.55;;;1.20;;
30707;SDS011;17458;48.958;8.284;2023-09-18T10:50:39;2.47;;;1.27;;
30707;SDS011;17458;48.958;8.284;2023-09-18T10:53:26;4.85;;;1.08;;
30707;SDS011;17458;48.958;8.284;2023-09-18T10:56:10;1.52;;;0.77;;
30707;SDS011;17458;48.958;8.284;2023-09-18T10:58:58;6.40;;;1.55;;
30707;SDS011;17458;48.958;8.284;2023-09-18T11:01:43;9.88;;;1.20;;
30707;SDS011;17458;48.958;8.284;2023-09-18T11:04:30;4.05;;;0.80;;
30707;SDS011;17458;48.958;8.284;2023-09-18T11:07:21;3.10;;;0.85;;
30707;SDS011;17458;48.958;8.284;2023-09-18T11:10:25;2.50;;;0.80;;
30707;SDS011;17458;48.958;8.284;2023-09-18T11:13:10;4.85;;;1.50;;
30707;SDS011;17458;48.958;8.284;2023-09-18T11:15:58;3.05;;;0.85;;
30707;SDS011;17458;48.958;8.284;2023-09-18T11:18:45;3.10;;;0.88;;
30707;SDS011;17458;48.958;8.284;2023-09-18T11:21:32;2.97;;;1.10;;
30707;SDS011;17458;48.958;8.284;2023-09-18T11:24:20;2.47;;;1.00;;
30707;SDS011;17458;48.958;8.284;2023-09-18T11:27:06;5.07;;;1.02;;
30707;SDS011;17458;48.958;8.284;2023-09-18T11:29:51;4.68;;;0.98;;
30707;SDS011;17458;48.958;8.284;2023-09-18T11:32:39;1.05;;;0.80;;
30707;SDS011;17458;48.958;8.284;2023-09-18T11:35:25;6.82;;;1.05;;
30707;SDS011;17458;48.958;8.284;2023-09-18T11:38:09;4.10;;;1.50;;
30707;SDS011;17458;48.958;8.284;2023-09-18T11:40:55;1.27;;;0.70;;
30707;SDS011;17458;48.958;8.284;2023-09-18T11:43:39;1.92;;;1.30;;
30707;SDS011;17458;48.958;8.284;2023-09-18T11:46:23;1.95;;;0.70;;
30707;SDS011;17458;48.958;8.284;2023-09-18T11:49:08;3.58;;;0.90;;
30707;SDS011;17458;48.958;8.284;2023-09-18T11:51:54;3.85;;;0.80;;
30707;SDS011;17458;48.958;8.284;2023-09-18T11:54:41;4.47;;;0.98;;
30707;SDS011;17458;48.958;8.284;2023-09-18T11:57:26;5.50;;;1.25;;
30707;SDS011;17458;48.958;8.284;2023-09-18T12:00:19;9.20;;;2.15;;
30707;SDS011;17458;48.958;8.284;2023-09-18T12:03:15;8.23;;;1.33;;
30707;SDS011;17458;48.958;8.284;2023-09-18T12:06:09;3.33;;;1.10;;
30707;SDS011;17458;48.958;8.284;2023-09-18T12:08:56;2.45;;;0.95;;
30707;SDS011;17458;48.958;8.284;2023-09-18T12:11:41;2.63;;;1.10;;
30707;SDS011;17458;48.958;8.284;2023-09-18T12:14:26;5.78;;;1.15;;
30707;SDS011;17458;48.958;8.284;2023-09-18T12:17:13;4.82;;;1.00;;
30707;SDS011;17458;48.958;8.284;2023-09-18T12:19:58;1.35;;;0.90;;
30707;SDS011;17458;48.958;8.284;2023-09-18T12:22:46;5.10;;;0.98;;
30707;SDS011;17458;48.958;8.284;2023-09-18T12:25:31;1.55;;;1.00;;
30707;SDS011;17458;48.958;8.284;2023-09-18T12:28:15;1.85;;;0.85;;
30707;SDS011;17458;48.958;8.284;2023-09-18T12:31:00;3.58;;;2.55;;
30707;SDS011;17458;48.958;8.284;2023-09-18T12:33:49;2.63;;;1.58;;
30707;SDS011;17458;48.958;8.284;2023-09-18T12:36:33;2.38;;;0.98;;
30707;SDS011;17458;48.958;8.284;2023-09-18T12:39:18;1.90;;;0.77;;
30707;SDS011;17458;48.958;8.284;2023-09-18T12:42:04;3.33;;;1.30;;
30707;SDS011;17458;48.958;8.284;2023-09-18T12:44:49;7.38;;;1.60;;
30707;SDS011;17458;48.958;8.284;2023-09-18T12:47:35;6.45;;;1.35;;
30707;SDS011;17458;48.958;8.284;2023-09-18T12:50:23;1.27;;;0.82;;
30707;SDS011;17458;48.958;8.284;2023-09-18T12:53:09;2.80;;;1.88;;
30707;SDS011;17458;48.958;8.284;2023-09-18T12:55:54;3.78;;;1.08;;
30707;SDS011;17458;48.958;8.284;2023-09-18T12:58:47;1.23;;;0.77;;
30707;SDS011;17458;48.958;8.284;2023-09-18T13:01:31;2.45;;;0.80;;
30707;SDS011;17458;48.958;8.284;2023-09-18T13:04:16;2.63;;;0.93;;
30707;SDS011;17458;48.958;8.284;2023-09-18T13:07:07;2.65;;;0.77;;
30707;SDS011;17458;48.958;8.284;2023-09-18T13:09:59;5.60;;;1.30;;
30707;SDS011;17458;48.958;8.284;2023-09-18T13:12:48;3.67;;;0.90;;
30707;SDS011;17458;48.958;8.284;2023-09-18T13:15:37;2.95;;;1.00;;
30707;SDS011;17458;48.958;8.284;2023-09-18T13:18:21;7.68;;;1.90;;
30707;SDS011;17458;48.958;8.284;2023-09-18T13:21:10;5.68;;;0.80;;
30707;SDS011;17458;48.958;8.284;2023-09-18T13:23:55;1.48;;;0.88;;
30707;SDS011;17458;48.958;8.284;2023-09-18T13:26:39;1.35;;;0.82;;
30707;SDS011;17458;48.958;8.284;2023-09-18T13:29:23;1.10;;;0.57;;
30707;SDS011;17458;48.958;8.284;2023-09-18T13:32:08;1.92;;;1.15;;
30707;SDS011;17458;48.958;8.284;2023-09-18T13:34:52;2.65;;;0.70;;
30707;SDS011;17458;48.958;8.284;2023-09-18T13:37:37;2.10;;;0.85;;
30707;SDS011;17458;48.958;8.284;2023-09-18T13:40:21;3.97;;;0.82;;
30707;SDS011;17458;48.958;8.284;2023-09-18T13:43:06;2.95;;;0.93;;
30707;SDS011;17458;48.958;8.284;2023-09-18T13:45:51;1.25;;;0.65;;
30707;SDS011;17458;48.958;8.284;2023-09-18T13:48:35;1.60;;;0.90;;
30707;SDS011;17458;48.958;8.284;2023-09-18T13:51:22;5.25;;;0.73;;
30707;SDS011;17458;48.958;8.284;2023-09-18T13:54:06;2.10;;;1.10;;
30707;SDS011;17458;48.958;8.284;2023-09-18T13:56:51;2.00;;;0.70;;
30707;SDS011;17458;48.958;8.284;2023-09-18T13:59:35;5.95;;;0.88;;
30707;SDS011;17458;48.958;8.284;2023-09-18T14:02:20;4.18;;;1.00;;
30707;SDS011;17458;48.958;8.284;2023-09-18T14:05:04;2.13;;;0.85;;
30707;SDS011;17458;48.958;8.284;2023-09-18T14:07:49;3.65;;;1.02;;
30707;SDS011;17458;48.958;8.284;2023-09-18T14:10:33;3.33;;;0.85;;
30707;SDS011;17458;48.958;8.284;2023-09-18T14:13:18;4.28;;;0.80;;
30707;SDS011;17458;48.958;8.284;2023-09-18T14:16:02;2.13;;;1.02;;
30707;SDS011;17458;48.958;8.284;2023-09-18T14:18:47;5.28;;;0.80;;
30707;SDS011;17458;48.958;8.284;2023-09-18T14:21:32;2.92;;;1.00;;
30707;SDS011;17458;48.958;8.284;2023-09-18T14:24:16;2.38;;;0.90;;
30707;SDS011;17458;48.958;8.284;2023-09-18T14:27:05;3.42;;;0.63;;
30707;SDS011;17458;48.958;8.284;2023-09-18T14:29:51;1.48;;;0.98;;
30707;SDS011;17458;48.958;8.284;2023-09-18T14:32:35;1.88;;;0.80;;
30707;SDS011;17458;48.958;8.284;2023-09-18T14:35:20;2.38;;;0.50;;
30707;SDS011;17458;48.958;8.284;2023-09-18T14:38:04;8.13;;;0.90;;
30707;SDS011;17458;48.958;8.284;2023-09-18T14:40:50;2.30;;;1.33;;
30707;SDS011;17458;48.958;8.284;2023-09-18T14:43:35;1.20;;;0.70;;
30707;SDS011;17458;48.958;8.284;2023-09-18T14:46:19;3.47;;;1.13;;
30707;SDS011;17458;48.958;8.284;2023-09-18T14:49:05;3.22;;;0.98;;
30707;SDS011;17458;48.958;8.284;2023-09-18T14:51:51;2.22;;;0.82;;
30707;SDS011;17458;48.958;8.284;2023-09-18T14:54:36;2.08;;;0.85;;
30707;SDS011;17458;48.958;8.284;2023-09-18T14:57:20;1.30;;;0.63;;
30707;SDS011;17458;48.958;8.284;2023-09-18T15:00:04;2.90;;;1.60;;
30707;SDS011;17458;48.958;8.284;2023-09-18T15:02:49;6.25;;;1.67;;
30707;SDS011;17458;48.958;8.284;2023-09-18T15:05:33;2.30;;;0.55;;
30707;SDS011;17458;48.958;8.284;2023-09-18T15:08:17;2.20;;;0.80;;
30707;SDS011;17458;48.958;8.284;2023-09-18T15:11:03;2.42;;;1.02;;
30707;SDS011;17458;48.958;8.284;2023-09-18T15:13:50;2.47;;;1.02;;
30707;SDS011;17458;48.958;8.284;2023-09-18T15:16:34;2.38;;;0.77;;
30707;SDS011;17458;48.958;8.284;2023-09-18T15:19:19;1.17;;;0.77;;
30707;SDS011;17458;48.958;8.284;2023-09-18T15:22:03;4.25;;;0.95;;
30707;SDS011;17458;48.958;8.284;2023-09-18T15:24:48;2.55;;;1.02;;
30707;SDS011;17458;48.958;8.284;2023-09-18T15:27:32;1.52;;;0.70;;
30707;SDS011;17458;48.958;8.284;2023-09-18T15:30:16;2.72;;;0.80;;
30707;SDS011;17458;48.958;8.284;2023-09-18T15:33:01;5.15;;;0.80;;
30707;SDS011;17458;48.958;8.284;2023-09-18T15:35:45;0.85;;;0.68;;
30707;SDS011;17458;48.958;8.284;2023-09-18T15:38:29;0.90;;;0.65;;
30707;SDS011;17458;48.958;8.284;2023-09-18T15:41:13;4.55;;;0.90;;
30707;SDS011;17458;48.958;8.284;2023-09-18T15:43:59;6.90;;;0.90;;
30707;SDS011;17458;48.958;8.284;2023-09-18T15:46:43;4.07;;;1.23;;
30707;SDS011;17458;48.958;8.284;2023-09-18T15:49:27;4.80;;;0.80;;
30707;SDS011;17458;48.958;8.284;2023-09-18T15:52:11;2.58;;;1.23;;
30707;SDS011;17458;48.958;8.284;2023-09-18T15:54:55;6.75;;;1.05;;
30707;SDS011;17458;48.958;8.284;2023-09-18T15:57:39;6.47;;;0.93;;
30707;SDS011;17458;48.958;8.284;2023-09-18T16:00:26;6.05;;;0.95;;
30707;SDS011;17458;48.958;8.284;2023-09-18T16:03:10;2.53;;;1.25;;
30707;SDS011;17458;48.958;8.284;2023-09-18T16:05:54;1.95;;;0.85;;
30707;SDS011;17458;48.958;8.284;2023-09-18T16:08:39;3.83;;;1.50;;
30707;SDS011;17458;48.958;8.284;2023-09-18T16:11:23;2.58;;;0.80;;
30707;SDS011;17458;48.958;8.284;2023-09-18T16:14:07;4.45;;;0.82;;
30707;SDS011;17458;48.958;8.284;2023-09-18T16:16:51;1.98;;;1.08;;
30707;SDS011;17458;48.958;8.284;2023-09-18T16:19:35;1.20;;;0.90;;
30707;SDS011;17458;48.958;8.284;2023-09-18T16:22:19;4.20;;;1.02;;
30707;SDS011;17458;48.958;8.284;2023-09-18T16:25:03;1.65;;;0.90;;
30707;SDS011;17458;48.958;8.284;2023-09-18T16:27:48;7.50;;;1.30;;
30707;SDS011;17458;48.958;8.284;2023-09-18T16:30:32;1.65;;;0.93;;
30707;SDS011;17458;48.958;8.284;2023-09-18T16:33:17;1.65;;;1.00;;